Time;durP1;ratioP1;P1;durP2;ratioP2;P2;SDS_P1;SDS_P2;PMS_P1;PMS_P2;Temp;Humidity;BMP_temperature;BMP_pressure;BME280_temperature;BME280_humidity;BME280_pressure;Samples;Min_cycle;Max_cycle;Signal;HPM_P1;HPM_P2
2021/09/29 00:01:48;;;;;;;13.23;5.93;;;;;;;12.92;83.89;100650.09;20693113;28;20075;-83
2021/09/29 00:11:50;;;;;;;14.10;5.57;;;;;;;12.92;83.63;100657.97;20707910;28;20046;-83
2021/09/29 00:21:52;;;;;;;9.23;5.47;;;;;;;12.85;84.54;100674.78;20690064;28;20101;-83
2021/09/29 00:31:55;;;;;;;9.32;4.93;;;;;;;12.65;85.62;100672.56;20692507;28;20054;-83
2021/09/29 00:41:57;;;;;;;9.13;4.88;;;;;;;12.54;85.24;100664.88;20687386;28;20054;-83
2021/09/29 00:51:59;;;;;;;8.48;5.00;;;;;;;12.65;85.20;100658.53;20676509;28;20054;-83
2021/09/29 01:02:01;;;;;;;10.65;5.63;;;;;;;12.72;84.33;100647.03;20682339;28;20088;-83
2021/09/29 01:12:34;;;;;;;8.85;4.80;;;;;;;12.82;83.69;100638.91;20705476;28;20062;-83
2021/09/29 01:22:55;;;;;;;11.50;5.00;;;;;;;12.91;83.48;100639.63;20687055;28;20054;-83
2021/09/29 01:32:58;;;;;;;9.35;5.05;;;;;;;12.93;83.17;100641.31;20694479;28;20193;-83
2021/09/29 01:42:59;;;;;;;8.98;4.88;;;;;;;12.94;82.66;100653.59;20693743;28;20070;-83
2021/09/29 01:53:02;;;;;;;9.02;4.50;;;;;;;12.96;83.23;100653.53;20700899;28;20188;-83
2021/09/29 02:03:05;;;;;;;11.75;5.28;;;;;;;12.93;82.85;100651.81;20689927;28;20463;-83
2021/09/29 02:13:09;;;;;;;9.57;5.27;;;;;;;12.87;83.21;100651.97;20690605;28;20293;-83
2021/09/29 02:23:11;;;;;;;11.07;6.85;;;;;;;12.90;83.61;100648.41;20689929;28;20074;-83
2021/09/29 02:33:13;;;;;;;13.50;7.47;;;;;;;12.73;84.62;100675.03;20698323;28;20066;-82
2021/09/29 02:43:14;;;;;;;14.50;7.97;;;;;;;12.56;86.02;100686.75;20706586;28;20163;-83
2021/09/29 02:53:17;;;;;;;15.35;8.70;;;;;;;12.40;86.22;100689.69;20709072;28;20111;-83
2021/09/29 03:03:20;;;;;;;12.95;8.15;;;;;;;12.33;86.12;100700.31;20676395;28;20051;-83
2021/09/29 03:13:22;;;;;;;13.32;8.60;;;;;;;12.40;85.28;100708.91;20617739;28;20043;-83
2021/09/29 03:23:24;;;;;;;16.38;7.65;;;;;;;12.41;84.82;100710.69;20608677;28;20078;-82
2021/09/29 03:33:26;;;;;;;11.90;7.97;;;;;;;12.38;84.65;100721.22;20610542;28;20043;-82
2021/09/29 03:43:28;;;;;;;12.48;7.60;;;;;;;12.39;84.44;100722.97;20613347;28;20457;-82
2021/09/29 03:53:29;;;;;;;11.25;7.22;;;;;;;12.25;84.92;100717.94;20605304;28;20042;-82
2021/09/29 04:03:31;;;;;;;12.32;7.25;;;;;;;12.23;85.39;100721.50;20603018;28;20069;-83
2021/09/29 04:13:33;;;;;;;12.02;7.32;;;;;;;12.06;85.93;100717.38;20618655;28;20047;-83
2021/09/29 04:23:38;;;;;;;11.85;6.93;;;;;;;11.95;86.12;100727.22;20607594;28;20125;-83
2021/09/29 04:33:39;;;;;;;10.70;7.33;;;;;;;12.01;86.23;100736.72;20608171;28;20448;-82
2021/09/29 04:43:44;;;;;;;;;;;;;;;12.13;85.99;100736.53;20610007;28;20129;-80
2021/09/29 04:53:46;;;;;;;13.38;7.47;;;;;;;12.20;85.67;100727.66;20584691;28;20423;-81
2021/09/29 05:03:49;;;;;;;13.07;7.40;;;;;;;12.30;85.94;100729.22;20567402;28;20051;-80
2021/09/29 05:13:50;;;;;;;14.18;7.57;;;;;;;12.33;85.39;100733.56;20586436;28;20050;-81
2021/09/29 05:23:52;;;;;;;14.82;7.25;;;;;;;12.35;85.70;100726.53;20566772;28;20043;-80
2021/09/29 05:33:54;;;;;;;15.45;7.18;;;;;;;12.14;86.58;100737.41;20584357;28;20058;-80
2021/09/29 05:43:55;;;;;;;17.25;7.88;;;;;;;11.96;87.86;100749.94;20587035;28;20410;-80
2021/09/29 05:53:57;;;;;;;16.00;8.02;;;;;;;11.96;87.74;100752.56;20585399;28;20046;-80
2021/09/29 06:03:59;;;;;;;13.05;7.75;;;;;;;11.92;88.27;100745.63;20583238;28;20057;-80
2021/09/29 06:14:04;;;;;;;15.48;7.30;;;;;;;12.19;86.83;100756.56;20583663;28;20416;-80
2021/09/29 06:24:06;;;;;;;16.17;8.10;;;;;;;12.34;86.73;100756.31;20586809;28;20050;-80
2021/09/29 06:34:07;;;;;;;13.30;6.30;;;;;;;12.58;86.24;100755.00;20584765;28;20286;-80
2021/09/29 06:44:09;;;;;;;12.48;6.45;;;;;;;12.53;85.98;100762.97;20605222;28;20078;-80
2021/09/29 06:54:11;;;;;;;14.30;6.32;;;;;;;12.51;85.88;100770.03;20583593;28;20043;-81
2021/09/29 07:04:13;;;;;;;14.43;6.05;;;;;;;12.61;85.72;100760.22;20612331;28;20049;-81
2021/09/29 07:14:14;;;;;;;12.70;5.95;;;;;;;12.90;84.38;100754.41;20696462;28;20046;-82
2021/09/29 07:24:17;;;;;;;10.77;4.35;;;;;;;13.15;83.18;100754.78;20698046;28;20077;-82
2021/09/29 07:34:20;;;;;;;9.40;4.05;;;;;;;13.54;81.54;100755.72;20680602;28;20051;-82
2021/09/29 07:44:22;;;;;;;7.82;3.50;;;;;;;13.79;79.05;100740.22;20732977;28;20053;-82
2021/09/29 07:54:29;;;;;;;7.95;3.15;;;;;;;14.18;77.34;100739.28;20740810;28;20381;-81
2021/09/29 08:04:31;;;;;;;6.82;2.85;;;;;;;14.79;75.85;100740.34;20755788;28;20046;-81
2021/09/29 08:14:33;;;;;;;6.97;3.03;;;;;;;15.19;73.41;100755.94;20756347;28;20054;-81
2021/09/29 08:35:08;;;;;;;6.50;2.13;;;;;;;15.83;70.82;100756.63;20756640;28;20073;-81
2021/09/29 08:45:18;;;;;;;6.45;2.08;;;;;;;15.62;71.34;100757.28;20686078;28;20050;-81
2021/09/29 09:16:09;;;;;;;4.97;1.52;;;;;;;16.71;67.23;100743.13;20673967;28;20055;-83
2021/09/29 09:26:14;;;;;;;7.55;1.58;;;;;;;16.78;66.59;100747.31;20661265;28;20061;-81
2021/09/29 09:36:29;;;;;;;23.08;2.92;;;;;;;16.99;69.45;100743.88;20666418;28;20054;-81
2021/09/29 09:46:35;;;;;;;;;;;;;;;16.82;70.87;100731.28;20676343;28;20101;-81
2021/09/29 09:56:37;;;;;;;;;;;;;;;16.68;68.23;100723.81;20671189;28;19926;-83
2021/09/29 10:06:39;;;;;;;8.07;1.77;;;;;;;17.05;68.42;100714.53;20661410;28;19925;-82
2021/09/29 10:27:19;;;;;;;4.25;1.50;;;;;;;17.27;68.91;100682.84;20672479;28;20050;-82
2021/09/29 10:47:50;;;;;;;7.32;1.10;;;;;;;18.01;62.46;100651.63;20664398;28;20484;-80
2021/09/29 11:29:21;;;;;;;7.38;1.85;;;;;;;16.37;79.32;100710.81;20773679;28;20132;-83
2021/09/29 12:10:28;;;;;;;7.60;1.15;;;;;;;16.50;78.51;100713.88;20768303;28;20511;-82
2021/09/29 12:20:30;;;;;;;7.28;1.23;;;;;;;16.36;78.70;100708.22;20746182;28;20050;-81
2021/09/29 12:30:34;;;;;;;7.05;1.52;;;;;;;16.21;78.38;100735.16;20728423;28;20497;-84
2021/09/29 12:40:39;;;;;;;2.90;0.90;;;;;;;14.82;83.83;100775.41;20656975;28;20122;-83
2021/09/29 12:50:51;;;;;;;2.47;0.90;;;;;;;15.00;84.58;100775.81;20677203;28;20386;-84
2021/09/29 13:00:54;;;;;;;3.88;0.77;;;;;;;14.76;82.64;100788.75;20652829;28;20109;-84
2021/09/29 13:10:58;;;;;;;2.65;0.60;;;;;;;14.53;81.75;100806.94;20670647;28;20504;-84
2021/09/29 13:21:08;;;;;;;3.05;0.60;;;;;;;14.54;83.22;100817.44;20667332;28;20116;-83
2021/09/29 13:41:31;;;;;;;2.50;0.55;;;;;;;14.42;84.66;100856.34;20671546;28;20050;-84
2021/09/29 13:51:39;;;;;;;3.10;0.70;;;;;;;14.56;83.88;100870.97;20652571;28;20054;-82
2021/09/29 14:02:07;;;;;;;2.50;0.60;;;;;;;14.41;84.08;100883.59;20666631;28;20583;-83
2021/09/29 14:42:55;;;;;;;2.38;0.88;;;;;;;15.37;81.92;100894.34;20621399;28;20047;-83
2021/09/29 14:52:59;;;;;;;4.83;0.80;;;;;;;15.34;78.85;100913.78;20608806;28;20054;-82
2021/09/29 15:03:01;;;;;;;2.88;0.50;;;;;;;15.25;79.50;100907.88;20606107;28;20050;-82
2021/09/29 15:13:05;;;;;;;4.13;0.65;;;;;;;15.38;80.23;100914.56;20603787;28;20050;-82
2021/09/29 16:04:23;;;;;;;1.73;0.70;;;;;;;15.51;74.50;100955.53;20680708;28;20054;-81
2021/09/29 16:35:22;;;;;;;3.40;0.95;;;;;;;14.77;77.21;101000.50;20678525;28;20118;-81
2021/09/29 16:45:28;;;;;;;6.25;3.00;;;;;;;14.50;77.86;101015.16;20673230;28;20050;-83
2021/09/29 16:55:31;;;;;;;40.33;21.97;;;;;;;14.11;79.53;101039.66;20679933;28;20051;-82
2021/09/29 17:05:33;;;;;;;5.32;2.70;;;;;;;14.00;79.76;101060.06;20678304;28;20106;-81
2021/09/29 17:15:41;;;;;;;3.63;0.80;;;;;;;13.83;77.99;101093.72;20973953;28;20406;-69
2021/09/29 17:25:45;;;;;;;2.17;0.75;;;;;;;13.67;76.35;101114.19;20974380;28;20080;-70
2021/09/29 17:35:54;;;;;;;3.58;0.52;;;;;;;13.60;74.73;101152.00;21014395;28;20103;-69
2021/09/29 17:56:17;;;;;;;3.05;1.20;;;;;;;13.55;70.18;101165.25;20971959;28;20056;-69
2021/09/29 18:06:23;;;;;;;3.78;0.90;;;;;;;13.42;72.61;101179.50;20970692;28;20507;-70
2021/09/29 18:16:25;;;;;;;5.72;1.73;;;;;;;13.35;75.97;101198.88;20986353;28;20460;-69
2021/09/29 18:26:27;;;;;;;6.82;1.00;;;;;;;12.94;77.79;101209.94;20917416;28;20132;-69
2021/09/29 18:36:31;;;;;;;9.90;1.90;;;;;;;12.74;75.79;101228.53;20913558;28;20041;-69
2021/09/29 18:46:33;;;;;;;6.25;1.58;;;;;;;12.62;77.02;101247.97;20913252;28;20132;-70
2021/09/29 19:17:01;;;;;;;4.38;1.55;;;;;;;12.28;74.25;101295.56;20971698;28;20473;-69
2021/09/29 19:27:03;;;;;;;8.20;2.17;;;;;;;12.12;74.61;101308.81;20992892;28;20494;-69
2021/09/29 19:37:04;;;;;;;4.10;1.13;;;;;;;12.06;75.45;101313.22;20991114;28;20048;-69
2021/09/29 19:47:11;;;;;;;4.57;1.73;;;;;;;11.94;76.58;101328.19;20992023;28;20448;-69
2021/09/29 20:07:55;;;;;;;7.65;3.42;;;;;;;11.75;79.02;101348.41;20989950;28;20036;-70
2021/09/29 20:18:00;;;;;;;6.97;2.30;;;;;;;11.66;80.78;101354.56;20922810;28;20037;-69
2021/09/29 20:28:02;;;;;;;6.80;2.27;;;;;;;11.65;80.44;101372.94;20905420;28;20060;-70
2021/09/29 20:48:25;;;;;;;10.40;2.47;;;;;;;11.57;80.87;101401.81;20904888;28;20487;-70
2021/09/29 20:58:27;;;;;;;9.27;4.30;;;;;;;11.33;81.72;101415.88;20905027;28;20052;-69
2021/09/29 21:08:35;;;;;;;5.32;2.10;;;;;;;11.18;82.86;101413.28;20903124;28;20041;-68
2021/09/29 21:18:37;;;;;;;8.30;3.53;;;;;;;10.93;83.71;101429.06;20976618;28;20044;-69
2021/09/29 21:28:40;;;;;;;5.43;2.85;;;;;;;10.83;85.29;101432.56;20984113;28;20087;-69
2021/09/29 21:38:51;;;;;;;6.32;2.70;;;;;;;10.57;84.32;101445.63;20983682;28;20094;-69
2021/09/29 21:49:19;;;;;;;6.55;2.42;;;;;;;10.39;86.22;101462.16;20984034;28;20052;-68
2021/09/29 23:11:37;;;;;;;;;;;;;;;9.21;88.57;101554.81;20910166;28;20045;-69
2021/09/29 23:42:20;;;;;;;7.32;4.22;;;;;;;9.02;87.94;101579.03;20908203;28;20553;-68
2021/09/29 23:52:22;;;;;;;8.95;2.70;;;;;;;9.01;88.02;101580.78;20907336;28;20044;-68
